createdAt,value
2023-07-18T00:01:31.042Z,21.53
2023-07-18T00:06:40.161Z,21.44
2023-07-18T00:11:46.538Z,21.24
2023-07-18T00:16:50.645Z,20.95
2023-07-18T00:21:59.899Z,21.04
2023-07-18T00:27:06.072Z,21.49
2023-07-18T00:32:11.609Z,21.10
2023-07-18T00:37:18.673Z,21.15
2023-07-18T00:42:22.864Z,20.76
2023-07-18T00:47:27.296Z,20.62
2023-07-18T00:52:34.484Z,20.74
2023-07-18T00:57:39.660Z,20.61
2023-07-18T01:08:10.291Z,20.61
2023-07-18T01:13:15.525Z,20.57
2023-07-18T01:18:20.765Z,20.55
2023-07-18T01:23:27.069Z,20.59
2023-07-18T01:28:31.243Z,20.44
2023-07-18T01:33:35.469Z,20.33
2023-07-18T01:38:41.710Z,20.69
2023-07-18T01:43:45.954Z,20.31
2023-07-18T01:48:50.152Z,20.45
2023-07-18T01:53:56.388Z,20.44
2023-07-18T01:59:00.580Z,20.18
2023-07-18T02:04:04.756Z,20.30
2023-07-18T02:09:13.156Z,20.04
2023-07-18T02:14:21.543Z,19.76
2023-07-18T02:24:50.089Z,19.60
2023-07-18T02:29:53.358Z,19.38
2023-07-18T02:34:56.617Z,19.66
2023-07-18T02:45:22.447Z,19.58
2023-07-18T02:55:50.412Z,19.43
2023-07-18T03:00:54.004Z,19.88
2023-07-18T03:05:57.701Z,19.77
2023-07-18T03:21:46.029Z,19.21
2023-07-18T03:26:50.714Z,19.12
2023-07-18T03:31:54.050Z,18.86
2023-07-18T03:36:57.397Z,18.56
2023-07-18T03:42:04.295Z,18.70
2023-07-18T03:47:20.025Z,18.29
2023-07-18T03:52:25.834Z,18.41
2023-07-18T03:57:32.182Z,18.24
2023-07-18T04:07:57.676Z,18.13
2023-07-18T04:13:03.876Z,18.66
2023-07-18T04:18:08.182Z,18.65
2023-07-18T04:23:12.381Z,18.87
2023-07-18T04:28:18.514Z,18.74
2023-07-18T04:38:45.092Z,18.75
2023-07-18T04:43:51.235Z,18.64
2023-07-18T04:48:55.592Z,18.63
2023-07-18T04:54:00.345Z,18.65
2023-07-18T04:59:06.551Z,18.91
2023-07-18T05:04:10.809Z,18.76
2023-07-18T05:09:14.932Z,19.10
2023-07-18T05:14:22.213Z,19.04
2023-07-18T05:19:26.387Z,19.05
2023-07-18T05:24:30.761Z,19.12
2023-07-18T05:29:37.045Z,19.29
2023-07-18T05:34:41.387Z,19.49
2023-07-18T05:39:45.636Z,19.42
2023-07-18T05:44:53.837Z,19.59
2023-07-18T05:49:59.568Z,19.46
2023-07-18T05:55:03.818Z,19.61
2023-07-18T06:00:12.993Z,19.50
2023-07-18T06:05:17.175Z,19.74
2023-07-18T06:10:22.369Z,19.54
2023-07-18T06:15:29.573Z,19.94
2023-07-18T06:20:34.765Z,19.76
2023-07-18T06:25:38.981Z,19.63
2023-07-18T06:30:46.275Z,19.70
2023-07-18T06:35:56.468Z,19.88
2023-07-18T06:41:00.867Z,19.91
2023-07-18T06:46:08.068Z,19.96
2023-07-18T06:51:12.280Z,20.20
2023-07-18T06:56:16.522Z,20.19
2023-07-18T07:01:23.041Z,19.87
2023-07-18T07:06:28.149Z,20.12
2023-07-18T07:11:33.353Z,20.09
2023-07-18T07:16:39.911Z,20.10
2023-07-18T07:21:45.080Z,20.30
2023-07-18T07:26:50.276Z,20.58
2023-07-18T07:31:57.545Z,20.91
2023-07-18T07:37:01.749Z,21.14
2023-07-18T07:42:07.153Z,21.23
2023-07-18T07:47:14.320Z,21.49
2023-07-18T07:52:18.486Z,21.71
2023-07-18T07:57:22.847Z,21.59
2023-07-18T08:02:29.080Z,21.76
2023-07-18T08:07:35.269Z,21.69
2023-07-18T08:12:40.462Z,21.93
2023-07-18T08:17:47.705Z,21.89
2023-07-18T08:22:51.913Z,21.93
2023-07-18T08:27:57.053Z,22.21
2023-07-18T08:33:04.385Z,22.63
2023-07-18T08:38:10.634Z,22.74
2023-07-18T08:48:41.086Z,22.73
2023-07-18T08:53:45.366Z,22.90
2023-07-18T08:58:49.545Z,22.74
2023-07-18T09:03:54.874Z,22.76
2023-07-18T09:14:25.388Z,23.22
2023-07-18T09:25:01.198Z,23.61
2023-07-18T09:30:05.421Z,23.72
2023-07-18T09:40:33.359Z,24.08
2023-07-18T09:56:22.596Z,24.56
2023-07-18T10:01:27.592Z,24.66
2023-07-18T10:06:34.915Z,24.79
2023-07-18T10:17:34.470Z,25.23
2023-07-18T10:22:39.835Z,25.24
2023-07-18T10:27:45.001Z,25.41
2023-07-18T10:32:56.380Z,25.48
2023-07-18T10:38:07.665Z,25.76
2023-07-18T10:43:12.735Z,25.83
2023-07-18T10:48:17.510Z,26.00
2023-07-18T10:53:24.485Z,26.31
2023-07-18T10:58:27.796Z,26.56
2023-07-18T11:03:37.424Z,26.84
2023-07-18T11:08:47.153Z,27.04
2023-07-18T11:13:50.360Z,27.19
2023-07-18T11:24:16.147Z,27.40
2023-07-18T11:29:27.710Z,27.36
2023-07-18T11:34:31.386Z,27.60
2023-07-18T11:39:36.674Z,27.80
2023-07-18T11:44:45.945Z,27.87
2023-07-18T11:49:50.131Z,27.98
2023-07-18T11:54:56.569Z,28.17
2023-07-18T12:05:24.069Z,28.59
2023-07-18T12:10:33.781Z,28.83
2023-07-18T12:15:38.473Z,28.82
2023-07-18T12:20:42.503Z,28.92
2023-07-18T12:25:48.424Z,28.95
2023-07-18T12:30:51.744Z,29.45
2023-07-18T12:35:55.004Z,29.60
2023-07-18T12:40:59.725Z,29.59
2023-07-18T12:46:02.976Z,29.79
2023-07-18T12:51:06.350Z,29.76
2023-07-18T13:01:31.581Z,29.69
2023-07-18T13:06:35.002Z,29.95
2023-07-18T13:17:02.687Z,30.38
2023-07-18T13:22:06.463Z,30.62
2023-07-18T13:32:32.153Z,30.96
2023-07-18T13:43:01.211Z,31.11
2023-07-18T13:48:04.857Z,31.41
2023-07-18T13:53:08.201Z,31.50
2023-07-18T14:03:39.644Z,31.35
2023-07-18T14:14:05.670Z,31.50
2023-07-18T14:19:08.946Z,31.61
2023-07-18T14:24:12.179Z,31.69
2023-07-18T14:29:18.145Z,31.99
2023-07-18T14:34:21.602Z,31.93
2023-07-18T14:44:48.372Z,32.11
2023-07-18T14:49:52.058Z,32.16
2023-07-18T14:54:57.773Z,32.10
2023-07-18T15:00:03.914Z,32.27
2023-07-18T15:15:51.503Z,32.48
2023-07-18T15:20:54.894Z,32.59
2023-07-18T15:25:58.455Z,32.59
2023-07-18T15:31:03.342Z,32.48
2023-07-18T15:36:06.978Z,32.33
2023-07-18T15:41:10.314Z,32.40
2023-07-18T15:51:36.196Z,32.23
2023-07-18T15:56:41.039Z,32.04
2023-07-18T16:01:45.945Z,31.73
2023-07-18T16:06:49.405Z,31.68
2023-07-18T16:11:52.827Z,31.29
2023-07-18T16:17:00.072Z,31.27
2023-07-18T16:27:26.562Z,30.90
2023-07-18T16:32:33.961Z,30.66
2023-07-18T16:37:37.957Z,30.44
2023-07-18T16:42:41.908Z,30.59
2023-07-18T16:47:46.756Z,30.48
2023-07-18T16:52:50.079Z,30.35
2023-07-18T17:03:15.609Z,30.06
2023-07-18T17:08:18.873Z,30.02
2023-07-18T17:13:22.686Z,30.00
2023-07-18T17:18:27.363Z,29.97
2023-07-18T17:23:30.725Z,29.97
2023-07-18T17:28:33.813Z,29.91
2023-07-18T17:33:38.525Z,29.81
2023-07-18T17:38:42.187Z,29.80
2023-07-18T17:43:45.942Z,29.73
2023-07-18T17:48:50.627Z,29.60
2023-07-18T17:53:56.464Z,29.54
2023-07-18T17:59:00.031Z,29.41
2023-07-18T18:04:07.641Z,29.23
2023-07-18T18:09:11.252Z,28.99
2023-07-18T18:19:36.892Z,28.67
2023-07-18T18:24:40.234Z,28.57
2023-07-18T18:35:09.885Z,28.17
2023-07-18T18:40:13.865Z,27.82
2023-07-18T18:45:19.035Z,27.63
2023-07-18T18:50:23.867Z,27.62
2023-07-18T18:55:29.259Z,27.30
2023-07-18T19:00:34.036Z,27.41
2023-07-18T19:05:38.882Z,27.32
2023-07-18T19:10:52.536Z,27.14
2023-07-18T19:16:04.769Z,27.13
2023-07-18T19:21:09.638Z,27.00
2023-07-18T19:26:12.984Z,26.97
2023-07-18T19:31:16.389Z,26.87
2023-07-18T19:41:42.458Z,26.75
2023-07-18T19:46:45.830Z,26.56
2023-07-18T19:51:51.568Z,26.24
2023-07-18T19:56:55.682Z,26.28
2023-07-18T20:07:21.102Z,26.12
2023-07-18T20:12:24.606Z,26.09
2023-07-18T20:22:49.934Z,25.93
2023-07-18T20:27:53.341Z,25.83
2023-07-18T20:32:59.725Z,25.80
2023-07-18T20:38:04.897Z,25.69
2023-07-18T20:43:08.135Z,25.55
2023-07-18T20:48:11.508Z,25.41
2023-07-18T21:09:20.186Z,24.94
2023-07-18T21:14:24.300Z,24.90
2023-07-18T21:24:49.617Z,24.62
2023-07-18T21:29:55.895Z,24.59
2023-07-18T21:34:59.272Z,24.47
2023-07-18T21:40:04.266Z,24.26
2023-07-18T21:45:08.357Z,24.20
2023-07-18T21:50:11.479Z,23.97
2023-07-18T21:55:17.987Z,24.07
2023-07-18T22:00:23.253Z,23.92
2023-07-18T22:05:28.595Z,23.64
2023-07-18T22:10:34.782Z,23.64
2023-07-18T22:15:40.078Z,23.36
2023-07-18T22:26:14.278Z,23.24
2023-07-18T22:31:19.631Z,23.07
2023-07-18T22:36:24.517Z,22.86
2023-07-18T22:46:52.266Z,22.75
2023-07-18T22:51:56.411Z,22.96
2023-07-18T23:02:24.118Z,22.54
2023-07-18T23:07:29.271Z,22.57
2023-07-18T23:12:35.708Z,22.42
2023-07-18T23:17:40.563Z,21.94
2023-07-18T23:22:45.349Z,22.02
2023-07-18T23:27:51.808Z,22.10
2023-07-18T23:32:56.065Z,21.89
2023-07-18T23:48:47.158Z,21.31
2023-07-18T23:53:51.335Z,21.13
2023-07-18T23:58:57.550Z,21.28
